createdAt,value
2018-06-20T00:01:51.757Z,16.80
2018-06-20T00:04:21.335Z,16.80
2018-06-20T00:06:51.041Z,16.70
2018-06-20T00:09:20.298Z,16.60
2018-06-20T00:11:50.130Z,16.60
2018-06-20T00:14:19.679Z,16.70
2018-06-20T00:16:48.949Z,16.70
2018-06-20T00:19:18.982Z,16.90
2018-06-20T00:21:48.362Z,16.80
2018-06-20T00:24:18.409Z,16.70
2018-06-20T00:26:48.053Z,16.80
2018-06-20T00:29:17.326Z,16.80
2018-06-20T00:31:46.962Z,16.80
2018-06-20T00:34:16.836Z,16.60
2018-06-20T00:36:46.259Z,16.90
2018-06-20T00:39:16.140Z,17.00
2018-06-20T00:41:45.372Z,16.90
2018-06-20T00:44:15.340Z,16.80
2018-06-20T00:46:44.555Z,16.90
2018-06-20T00:49:13.917Z,16.90
2018-06-20T00:51:43.498Z,16.80
2018-06-20T00:54:12.693Z,16.80
2018-06-20T00:56:41.929Z,16.70
2018-06-20T00:59:11.569Z,16.50
2018-06-20T01:01:41.033Z,16.60
2018-06-20T01:04:10.372Z,16.20
2018-06-20T01:06:39.872Z,16.10
2018-06-20T01:09:10.854Z,16.30
2018-06-20T01:11:40.139Z,16.40
2018-06-20T01:14:09.349Z,16.20
2018-06-20T01:16:38.752Z,15.90
2018-06-20T01:19:08.190Z,15.90
2018-06-20T01:21:38.240Z,16.30
2018-06-20T01:24:07.480Z,16.50
2018-06-20T01:26:36.942Z,16.50
2018-06-20T01:29:06.164Z,16.60
2018-06-20T01:31:36.033Z,16.50
2018-06-20T01:34:05.698Z,16.50
2018-06-20T01:36:34.948Z,16.50
2018-06-20T01:39:08.225Z,16.50
2018-06-20T01:41:37.625Z,16.50
2018-06-20T01:44:06.887Z,16.40
2018-06-20T01:46:36.536Z,16.50
2018-06-20T01:49:05.796Z,16.60
2018-06-20T01:51:35.038Z,16.50
2018-06-20T01:54:04.254Z,16.60
2018-06-20T01:56:34.093Z,16.60
2018-06-20T01:59:03.415Z,16.50
2018-06-20T02:01:32.695Z,16.50
2018-06-20T02:04:02.532Z,16.50
2018-06-20T02:06:31.725Z,16.70
2018-06-20T02:09:01.178Z,16.80
2018-06-20T02:11:31.637Z,16.70
2018-06-20T02:14:01.277Z,16.50
2018-06-20T02:16:30.525Z,16.70
2018-06-20T02:19:00.403Z,16.60
2018-06-20T02:21:29.693Z,16.90
2018-06-20T02:23:59.730Z,16.90
2018-06-20T02:26:29.647Z,17.00
2018-06-20T02:29:00.938Z,17.00
2018-06-20T02:33:59.334Z,17.10
2018-06-20T02:36:33.492Z,16.90
2018-06-20T02:39:05.853Z,16.60
2018-06-20T02:41:35.989Z,16.50
2018-06-20T02:44:05.541Z,16.40
2018-06-20T02:46:35.004Z,16.40
2018-06-20T02:49:04.910Z,16.30
2018-06-20T02:51:34.216Z,16.20
2018-06-20T02:54:03.945Z,16.30
2018-06-20T02:56:33.492Z,16.50
2018-06-20T02:59:03.073Z,16.40
2018-06-20T03:01:32.670Z,16.10
2018-06-20T03:04:02.014Z,15.90
2018-06-20T03:06:31.551Z,15.80
2018-06-20T03:09:01.791Z,15.80
2018-06-20T03:11:31.328Z,15.70
2018-06-20T03:14:01.441Z,15.70
2018-06-20T03:16:30.739Z,15.80
2018-06-20T03:19:00.047Z,15.70
2018-06-20T03:21:29.887Z,15.90
2018-06-20T03:23:59.408Z,16.30
2018-06-20T03:26:28.830Z,16.40
2018-06-20T03:28:58.245Z,16.30
2018-06-20T03:31:28.988Z,16.10
2018-06-20T03:33:58.553Z,16.20
2018-06-20T03:36:27.948Z,16.20
2018-06-20T03:38:57.731Z,16.10
2018-06-20T03:42:56.386Z,15.90
2018-06-20T03:45:26.115Z,15.90
2018-06-20T03:47:55.386Z,15.80
2018-06-20T03:50:24.620Z,16.00
2018-06-20T03:52:54.601Z,16.40
2018-06-20T03:55:23.885Z,16.60
2018-06-20T03:57:53.102Z,16.80
2018-06-20T04:00:31.424Z,16.80
2018-06-20T04:03:01.166Z,16.70
2018-06-20T04:05:31.076Z,16.70
2018-06-20T04:08:00.951Z,16.90
2018-06-20T04:10:30.358Z,17.00
2018-06-20T04:13:00.200Z,17.10
2018-06-20T04:15:30.066Z,17.20
2018-06-20T04:20:28.275Z,17.10
2018-06-20T04:22:58.063Z,17.20
2018-06-20T04:25:27.287Z,17.30
2018-06-20T04:27:56.537Z,17.30
2018-06-20T04:30:33.200Z,17.40
2018-06-20T04:33:02.925Z,17.60
2018-06-20T04:35:32.237Z,17.40
2018-06-20T04:40:32.165Z,17.60
2018-06-20T04:43:01.908Z,17.70
2018-06-20T04:45:32.078Z,17.80
2018-06-20T04:48:01.566Z,18.90
2018-06-20T04:50:33.806Z,20.50
2018-06-20T04:53:03.609Z,22.10
2018-06-20T04:55:34.391Z,22.80
2018-06-20T04:59:56.868Z,22.80
2018-06-20T05:02:26.989Z,23.70
2018-06-20T05:04:56.224Z,24.20
2018-06-20T05:07:25.769Z,24.50
2018-06-20T05:09:56.381Z,24.70
2018-06-20T05:12:26.929Z,24.50
2018-06-20T05:14:57.045Z,23.40
2018-06-20T05:17:26.747Z,22.20
2018-06-20T05:19:57.790Z,20.90
2018-06-20T05:22:40.919Z,20.40
2018-06-20T05:25:14.555Z,20.40
2018-06-20T05:27:58.785Z,20.10
2018-06-20T05:30:38.390Z,19.90
2018-06-20T05:40:20.947Z,19.60
2018-06-20T05:42:50.164Z,20.30
2018-06-20T05:45:19.929Z,20.40
2018-06-20T05:47:49.838Z,20.00
2018-06-20T05:50:27.140Z,19.70
2018-06-20T05:52:57.797Z,19.60
2018-06-20T05:55:27.621Z,19.80
2018-06-20T05:57:57.409Z,20.20
2018-06-20T06:00:28.842Z,21.40
2018-06-20T06:03:15.175Z,22.90
2018-06-20T06:05:55.674Z,23.80
2018-06-20T06:08:25.034Z,23.80
2018-06-20T06:10:54.980Z,23.80
2018-06-20T06:18:22.696Z,24.70
2018-06-20T06:20:55.206Z,25.90
2018-06-20T06:23:26.339Z,27.10
2018-06-20T06:25:56.468Z,27.70
2018-06-20T06:28:26.178Z,28.30
2018-06-20T06:30:56.951Z,28.50
2018-06-20T06:37:21.713Z,28.60
2018-06-20T06:39:51.093Z,29.10
2018-06-20T06:42:20.346Z,30.00
2018-06-20T06:44:51.351Z,30.30
2018-06-20T06:47:20.987Z,30.40
2018-06-20T06:55:19.313Z,32.30
2018-06-20T06:57:48.604Z,32.60
2018-06-20T07:00:33.968Z,32.70
2018-06-20T07:03:06.338Z,32.50
2018-06-20T07:05:37.045Z,32.40
2018-06-20T07:08:22.906Z,33.60
2018-06-20T07:10:53.294Z,33.00
2018-06-20T07:13:22.848Z,34.80
2018-06-20T07:18:36.841Z,35.10
2018-06-20T07:21:07.245Z,34.80
2018-06-20T07:23:36.582Z,35.70
2018-06-20T07:26:06.229Z,34.40
2018-06-20T07:28:35.490Z,37.10
2018-06-20T07:31:05.497Z,38.50
2018-06-20T07:33:35.387Z,35.40
2018-06-20T07:36:04.700Z,33.00
2018-06-20T07:38:34.230Z,35.50
2018-06-20T07:41:04.343Z,35.70
2018-06-20T07:43:35.247Z,31.60
2018-06-20T07:46:18.312Z,32.30
2018-06-20T07:48:47.574Z,30.90
2018-06-20T07:51:17.233Z,29.50
2018-06-20T07:53:47.141Z,30.50
2018-06-20T07:56:17.199Z,28.90
2018-06-20T07:59:03.339Z,31.70
2018-06-20T08:03:04.393Z,28.90
2018-06-20T08:05:41.053Z,26.60
2018-06-20T08:08:16.841Z,27.60
2018-06-20T08:10:51.802Z,28.40
2018-06-20T08:13:32.792Z,29.20
2018-06-20T08:16:10.121Z,29.80
2018-06-20T08:18:46.209Z,29.60
2018-06-20T08:21:17.549Z,28.80
2018-06-20T08:23:47.112Z,30.50
2018-06-20T08:26:16.429Z,27.80
2018-06-20T08:28:46.863Z,26.40
2018-06-20T08:31:26.565Z,27.00
2018-06-20T08:33:58.489Z,27.60
2018-06-20T08:36:27.968Z,29.90
2018-06-20T08:39:01.266Z,28.50
2018-06-20T08:41:31.278Z,27.50
2018-06-20T08:44:00.947Z,29.80
2018-06-20T08:46:32.680Z,30.50
2018-06-20T08:49:06.424Z,29.10
2018-06-20T08:51:41.232Z,31.40
2018-06-20T08:54:11.079Z,30.30
2018-06-20T08:56:41.776Z,31.70
2018-06-20T08:59:11.014Z,31.20
2018-06-20T09:01:42.484Z,31.60
2018-06-20T09:04:17.513Z,29.80
2018-06-20T09:06:52.161Z,29.00
2018-06-20T09:09:28.732Z,29.20
2018-06-20T09:12:05.092Z,30.60
2018-06-20T09:20:10.562Z,29.60
2018-06-20T09:22:40.242Z,31.60
2018-06-20T09:25:09.569Z,28.50
2018-06-20T09:27:40.000Z,27.80
2018-06-20T09:30:09.373Z,29.90
2018-06-20T09:32:39.376Z,27.40
2018-06-20T09:35:08.993Z,29.00
2018-06-20T09:37:57.592Z,28.60
2018-06-20T09:40:42.056Z,28.00
2018-06-20T09:43:11.382Z,27.60
2018-06-20T09:45:40.989Z,30.60
2018-06-20T09:48:10.331Z,30.50
2018-06-20T09:50:45.565Z,31.60
2018-06-20T09:53:28.889Z,31.20
2018-06-20T09:56:02.159Z,31.50
2018-06-20T09:59:20.146Z,28.70
2018-06-20T10:01:56.544Z,27.40
2018-06-20T10:04:33.368Z,28.30
2018-06-20T10:07:11.112Z,28.50
2018-06-20T10:12:54.776Z,28.80
2018-06-20T10:15:31.707Z,27.70
2018-06-20T10:18:01.315Z,27.70
2018-06-20T10:20:33.327Z,27.00
2018-06-20T10:23:36.795Z,27.20
2018-06-20T10:26:14.716Z,28.20
2018-06-20T10:28:46.621Z,28.60
2018-06-20T10:31:15.923Z,28.10
2018-06-20T10:33:46.104Z,27.70
2018-06-20T10:36:22.082Z,28.10
2018-06-20T10:38:51.775Z,29.10
2018-06-20T10:41:21.495Z,28.90
2018-06-20T10:46:26.909Z,28.00
2018-06-20T10:48:57.900Z,28.00
2018-06-20T10:51:27.787Z,27.80
2018-06-20T10:54:02.335Z,28.40
2018-06-20T10:56:42.954Z,28.90
2018-06-20T11:02:56.576Z,28.50
2018-06-20T11:05:32.555Z,28.20
2018-06-20T11:08:12.688Z,29.20
2018-06-20T11:13:39.481Z,30.10
2018-06-20T11:18:50.683Z,28.10
2018-06-20T11:21:37.322Z,28.50
2018-06-20T11:24:09.392Z,29.00
2018-06-20T11:26:38.853Z,29.00
2018-06-20T11:29:10.479Z,28.90
2018-06-20T11:31:40.714Z,28.20
2018-06-20T11:34:10.585Z,27.30
2018-06-20T11:39:12.299Z,27.40
2018-06-20T11:41:42.671Z,27.40
2018-06-20T11:44:14.495Z,28.10
2018-06-20T11:46:52.197Z,27.60
2018-06-20T11:49:21.616Z,27.40
2018-06-20T11:51:55.217Z,27.50
2018-06-20T11:54:25.853Z,27.30
2018-06-20T11:56:55.194Z,27.80
2018-06-20T11:59:30.838Z,27.90
2018-06-20T12:02:18.203Z,28.40
2018-06-20T12:05:32.896Z,28.40
2018-06-20T12:08:09.154Z,28.70
2018-06-20T12:10:46.139Z,28.90
2018-06-20T12:15:24.568Z,28.40
2018-06-20T12:18:01.725Z,28.50
2018-06-20T12:20:36.263Z,28.60
2018-06-20T12:23:11.319Z,28.40
2018-06-20T12:25:46.136Z,28.00
2018-06-20T12:28:22.503Z,28.30
2018-06-20T12:31:23.622Z,28.50
2018-06-20T12:34:07.223Z,28.20
2018-06-20T12:36:46.316Z,28.30
2018-06-20T12:39:20.295Z,27.60
2018-06-20T12:41:56.924Z,27.90
2018-06-20T12:47:20.979Z,28.50
2018-06-20T12:49:56.626Z,28.50
2018-06-20T12:52:25.993Z,27.70
2018-06-20T12:54:56.010Z,27.90
2018-06-20T12:57:39.459Z,27.90
2018-06-20T13:00:24.953Z,28.00
2018-06-20T13:06:30.802Z,28.10
2018-06-20T13:09:03.056Z,28.30
2018-06-20T13:11:34.799Z,28.00
2018-06-20T13:14:10.103Z,27.90
2018-06-20T13:16:55.990Z,27.70
2018-06-20T13:20:09.862Z,27.80
2018-06-20T13:22:39.323Z,27.50
2018-06-20T13:25:11.503Z,27.80
2018-06-20T13:27:46.735Z,27.60
2018-06-20T13:30:16.551Z,27.60
2018-06-20T13:32:51.442Z,27.90
2018-06-20T13:35:28.409Z,27.40
2018-06-20T13:38:29.576Z,27.60
2018-06-20T13:41:07.453Z,27.70
2018-06-20T13:43:49.026Z,27.60
2018-06-20T13:46:36.014Z,27.70
2018-06-20T14:03:35.741Z,27.40
2018-06-20T14:06:15.040Z,27.20
2018-06-20T14:15:11.071Z,27.50
2018-06-20T14:17:51.329Z,27.60
2018-06-20T14:31:29.325Z,27.70
2018-06-20T14:34:05.043Z,27.90
2018-06-20T14:37:48.175Z,27.80
2018-06-20T14:40:38.817Z,27.90
2018-06-20T14:43:40.319Z,27.70
2018-06-20T14:46:20.872Z,27.70
2018-06-20T14:51:56.080Z,27.70
2018-06-20T14:54:50.578Z,27.80
2018-06-20T14:57:29.474Z,27.40
2018-06-20T15:00:04.609Z,27.50
2018-06-20T15:05:06.677Z,27.60
2018-06-20T15:07:38.623Z,27.10
2018-06-20T15:10:10.483Z,27.20
2018-06-20T15:12:40.774Z,27.50
2018-06-20T15:15:18.241Z,27.40
2018-06-20T15:20:48.288Z,27.50
2018-06-20T15:26:19.584Z,27.40
2018-06-20T15:28:56.764Z,27.40
2018-06-20T15:31:32.984Z,27.10
2018-06-20T15:34:07.586Z,27.20
2018-06-20T15:36:43.370Z,27.20
2018-06-20T15:39:13.062Z,27.20
2018-06-20T15:41:44.821Z,27.40
2018-06-20T15:44:14.971Z,27.30
2018-06-20T15:47:10.298Z,27.50
2018-06-20T15:49:39.774Z,27.40
2018-06-20T15:52:12.324Z,27.60
2018-06-20T15:54:47.301Z,27.40
2018-06-20T15:57:18.725Z,27.60
2018-06-20T15:59:52.403Z,27.50
2018-06-20T16:02:24.290Z,27.30
2018-06-20T16:07:52.083Z,27.30
2018-06-20T16:10:24.936Z,27.30
2018-06-20T16:19:33.110Z,27.10
2018-06-20T16:23:09.416Z,27.10
2018-06-20T16:28:27.138Z,27.20
2018-06-20T16:31:10.173Z,27.30
2018-06-20T16:33:57.242Z,27.40
2018-06-20T16:36:34.309Z,27.20
2018-06-20T16:39:06.109Z,27.10
2018-06-20T16:41:40.499Z,27.10
2018-06-20T16:44:12.247Z,27.00
2018-06-20T16:46:48.773Z,26.90
2018-06-20T16:49:18.002Z,27.10
2018-06-20T16:52:00.965Z,27.00
2018-06-20T16:54:31.158Z,26.90
2018-06-20T16:58:31.333Z,26.90
2018-06-20T17:01:08.833Z,26.90
2018-06-20T17:03:45.952Z,26.90
2018-06-20T17:08:56.336Z,26.90
2018-06-20T17:11:28.453Z,26.90
2018-06-20T17:14:04.329Z,26.90
2018-06-20T17:16:40.123Z,26.90
2018-06-20T17:21:54.953Z,26.80
2018-06-20T17:24:30.279Z,26.70
2018-06-20T17:27:00.406Z,26.70
2018-06-20T17:29:32.953Z,26.60
2018-06-20T17:32:08.055Z,26.50
2018-06-20T17:34:45.174Z,26.60
2018-06-20T17:37:23.150Z,26.50
2018-06-20T17:39:57.327Z,26.40
2018-06-20T17:42:38.579Z,26.70
2018-06-20T17:47:46.753Z,26.40
2018-06-20T17:50:35.984Z,26.50
2018-06-20T17:53:10.821Z,26.50
2018-06-20T17:55:40.274Z,26.70
2018-06-20T17:58:09.909Z,26.40
2018-06-20T18:00:46.509Z,26.20
2018-06-20T18:03:17.242Z,26.20
2018-06-20T18:05:54.743Z,25.90
2018-06-20T18:08:29.530Z,25.80
2018-06-20T18:11:07.038Z,26.10
2018-06-20T18:13:43.750Z,26.00
2018-06-20T18:19:29.613Z,25.50
2018-06-20T18:21:59.673Z,25.10
2018-06-20T18:24:31.644Z,25.00
2018-06-20T18:27:07.966Z,24.70
2018-06-20T18:29:46.643Z,24.40
2018-06-20T18:32:15.956Z,24.30
2018-06-20T18:34:47.155Z,24.20
2018-06-20T18:37:17.496Z,24.00
2018-06-20T18:39:52.270Z,24.10
2018-06-20T18:42:22.301Z,24.30
2018-06-20T18:44:52.090Z,24.40
2018-06-20T18:47:27.792Z,24.40
2018-06-20T18:49:58.177Z,24.30
2018-06-20T18:52:29.125Z,24.20
2018-06-20T18:54:59.202Z,23.80
2018-06-20T18:57:34.385Z,23.60
2018-06-20T19:00:09.278Z,23.70
2018-06-20T19:02:44.070Z,23.40
2018-06-20T19:05:19.262Z,23.00
2018-06-20T19:08:23.151Z,23.00
2018-06-20T19:10:53.712Z,23.00
2018-06-20T19:13:56.546Z,23.20
2018-06-20T19:16:25.850Z,23.20
2018-06-20T19:18:55.769Z,23.10
2018-06-20T19:21:26.550Z,22.70
2018-06-20T19:23:56.238Z,22.50
2018-06-20T19:26:25.909Z,22.90
2018-06-20T19:28:56.635Z,23.00
2018-06-20T19:31:32.099Z,23.00
2018-06-20T19:36:32.143Z,22.80
2018-06-20T19:39:06.032Z,22.50
2018-06-20T19:41:35.310Z,22.70
2018-06-20T19:44:11.794Z,22.70
2018-06-20T19:46:41.538Z,22.50
2018-06-20T19:49:10.846Z,22.50
2018-06-20T19:51:40.498Z,22.50
2018-06-20T19:54:10.187Z,22.40
2018-06-20T19:56:39.475Z,22.30
2018-06-20T19:59:09.466Z,21.80
2018-06-20T20:01:40.183Z,21.80
2018-06-20T20:04:09.443Z,21.90
2018-06-20T20:06:38.747Z,21.60
2018-06-20T20:09:09.985Z,21.60
2018-06-20T20:11:39.698Z,21.80
2018-06-20T20:14:10.025Z,21.80
2018-06-20T20:16:39.541Z,21.90
2018-06-20T20:19:08.833Z,21.80
2018-06-20T20:21:38.145Z,21.70
2018-06-20T20:24:09.581Z,21.40
2018-06-20T20:27:37.178Z,21.40
2018-06-20T20:30:07.591Z,21.20
2018-06-20T20:32:36.869Z,21.30
2018-06-20T20:35:06.170Z,21.20
2018-06-20T20:37:38.104Z,21.50
2018-06-20T20:40:07.319Z,21.50
2018-06-20T20:42:36.688Z,21.20
2018-06-20T20:45:06.829Z,21.30
2018-06-20T20:47:36.088Z,21.30
2018-06-20T20:50:05.645Z,21.20
2018-06-20T20:52:35.821Z,21.10
2018-06-20T20:55:05.506Z,21.10
2018-06-20T20:57:34.745Z,20.90
2018-06-20T21:00:04.302Z,20.90
2018-06-20T21:02:33.563Z,20.70
2018-06-20T21:05:03.329Z,20.80
2018-06-20T21:07:32.902Z,20.50
2018-06-20T21:10:02.182Z,20.80
2018-06-20T21:12:31.489Z,21.00
2018-06-20T21:15:00.989Z,20.90
2018-06-20T21:17:30.175Z,20.80
2018-06-20T21:19:59.689Z,20.40
2018-06-20T21:24:58.171Z,20.30
2018-06-20T21:27:27.420Z,20.50
2018-06-20T21:29:56.957Z,20.20
2018-06-20T21:32:26.205Z,20.30
2018-06-20T21:37:24.686Z,20.50
2018-06-20T21:39:53.912Z,20.60
2018-06-20T21:44:52.222Z,20.20
2018-06-20T21:47:21.497Z,20.20
2018-06-20T21:49:50.805Z,20.20
2018-06-20T21:52:20.642Z,20.20
2018-06-20T21:54:50.310Z,20.20
2018-06-20T21:57:20.234Z,20.20
2018-06-20T21:59:50.144Z,19.90
2018-06-20T22:02:19.827Z,19.60
2018-06-20T22:04:51.700Z,19.80
2018-06-20T22:07:22.011Z,19.70
2018-06-20T22:09:52.645Z,19.50
2018-06-20T22:12:22.185Z,19.50
2018-06-20T22:14:52.191Z,19.40
2018-06-20T22:17:22.788Z,19.60
2018-06-20T22:19:53.703Z,19.80
2018-06-20T22:22:23.051Z,19.70
2018-06-20T22:24:52.298Z,19.60
2018-06-20T22:27:22.157Z,19.50
2018-06-20T22:29:51.788Z,19.50
2018-06-20T22:32:21.840Z,19.60
2018-06-20T22:34:51.526Z,19.40
2018-06-20T22:37:20.758Z,19.30
2018-06-20T22:39:50.505Z,19.50
2018-06-20T22:42:20.466Z,19.60
2018-06-20T22:44:50.026Z,19.40
2018-06-20T22:47:19.264Z,19.00
2018-06-20T22:49:49.251Z,18.90
2018-06-20T22:52:18.487Z,19.00
2018-06-20T22:54:47.695Z,19.20
2018-06-20T22:57:17.253Z,19.10
2018-06-20T22:59:46.474Z,19.30
2018-06-20T23:02:15.755Z,19.40
2018-06-20T23:04:45.337Z,19.40
2018-06-20T23:07:14.998Z,19.40
2018-06-20T23:09:44.227Z,19.40
2018-06-20T23:12:13.513Z,19.30
2018-06-20T23:14:42.759Z,19.20
2018-06-20T23:17:11.974Z,19.30
2018-06-20T23:19:41.528Z,19.30
2018-06-20T23:22:10.729Z,19.20
2018-06-20T23:24:39.915Z,18.90
2018-06-20T23:27:09.105Z,18.80
2018-06-20T23:29:38.309Z,18.90
2018-06-20T23:34:36.402Z,19.00
2018-06-20T23:37:05.609Z,19.00
2018-06-20T23:39:35.584Z,18.90
2018-06-20T23:42:04.801Z,19.00
2018-06-20T23:47:03.541Z,19.10
2018-06-20T23:49:32.999Z,18.90
2018-06-20T23:54:31.439Z,19.00
2018-06-20T23:57:01.563Z,18.90
2018-06-20T23:59:36.727Z,18.80
